createdAt,value
2022-09-04T00:00:20.868Z,2.20
2022-09-04T00:01:30.100Z,1.92
2022-09-04T00:02:42.188Z,2.30
2022-09-04T00:03:49.088Z,2.22
2022-09-04T00:04:58.026Z,2.75
2022-09-04T00:06:05.471Z,1.85
2022-09-04T00:07:15.635Z,2.10
2022-09-04T00:08:36.427Z,2.45
2022-09-04T00:09:45.769Z,1.92
2022-09-04T00:10:51.417Z,1.75
2022-09-04T00:11:59.764Z,2.40
2022-09-04T00:13:06.945Z,2.30
2022-09-04T00:14:12.318Z,2.25
2022-09-04T00:15:19.348Z,2.22
2022-09-04T00:16:25.860Z,1.95
2022-09-04T00:17:30.609Z,2.30
2022-09-04T00:18:36.781Z,2.13
2022-09-04T00:19:43.233Z,2.08
2022-09-04T00:20:49.669Z,2.00
2022-09-04T00:21:53.976Z,2.38
2022-09-04T00:23:00.583Z,2.20
2022-09-04T00:24:06.005Z,1.90
2022-09-04T00:25:13.760Z,2.10
2022-09-04T00:26:21.661Z,2.30
2022-09-04T00:27:26.354Z,1.80
2022-09-04T00:28:34.206Z,2.03
2022-09-04T00:29:44.361Z,1.90
2022-09-04T00:30:52.538Z,1.90
2022-09-04T00:31:59.175Z,2.80
2022-09-04T00:33:05.051Z,2.28
2022-09-04T00:34:18.755Z,2.08
2022-09-04T00:35:23.194Z,2.00
2022-09-04T00:36:28.378Z,2.53
2022-09-04T00:37:33.513Z,1.83
2022-09-04T00:38:43.253Z,2.17
2022-09-04T00:39:50.844Z,2.55
2022-09-04T00:40:58.876Z,2.08
2022-09-04T00:42:08.833Z,2.33
2022-09-04T00:43:42.274Z,2.20
2022-09-04T00:45:02.383Z,1.88
2022-09-04T00:46:18.188Z,2.22
2022-09-04T00:47:40.081Z,2.28
2022-09-04T00:49:11.569Z,2.20
2022-09-04T00:50:32.012Z,2.03
2022-09-04T00:51:40.609Z,2.20
2022-09-04T00:53:06.068Z,2.25
2022-09-04T00:54:19.879Z,2.15
2022-09-04T00:55:39.822Z,2.38
2022-09-04T00:57:00.551Z,2.25
2022-09-04T00:58:17.842Z,2.05
2022-09-04T00:59:31.754Z,2.25
2022-09-04T01:00:33.584Z,2.05
2022-09-04T01:01:36.746Z,1.90
2022-09-04T01:02:51.965Z,2.10
2022-09-04T01:04:14.243Z,2.20
2022-09-04T01:05:33.515Z,2.60
2022-09-04T01:06:43.592Z,2.30
2022-09-04T01:07:49.810Z,1.98
2022-09-04T01:09:06.395Z,2.40
2022-09-04T01:10:27.841Z,1.92
2022-09-04T01:11:36.288Z,2.60
2022-09-04T01:12:41.599Z,2.08
2022-09-04T01:13:47.384Z,2.47
2022-09-04T01:14:57.092Z,2.42
2022-09-04T01:16:01.938Z,2.78
2022-09-04T01:17:13.864Z,2.58
2022-09-04T01:18:19.488Z,2.42
2022-09-04T01:19:33.754Z,2.58
2022-09-04T01:20:48.223Z,2.13
2022-09-04T01:22:17.433Z,2.85
2022-09-04T01:23:26.510Z,2.40
2022-09-04T01:24:42.129Z,2.20
2022-09-04T01:25:59.223Z,2.20
2022-09-04T01:27:05.765Z,2.30
2022-09-04T01:28:11.389Z,1.92
2022-09-04T01:29:23.774Z,2.03
2022-09-04T01:30:25.401Z,2.17
2022-09-04T01:31:36.380Z,2.13
2022-09-04T01:32:48.617Z,2.58
2022-09-04T01:34:01.845Z,1.90
2022-09-04T01:35:11.221Z,2.13
2022-09-04T01:36:22.522Z,2.78
2022-09-04T01:37:33.801Z,2.42
2022-09-04T01:38:39.572Z,2.10
2022-09-04T01:39:43.633Z,1.95
2022-09-04T01:40:49.594Z,2.00
2022-09-04T01:41:56.989Z,2.30
2022-09-04T01:43:03.682Z,2.20
2022-09-04T01:44:06.680Z,1.98
2022-09-04T01:45:10.444Z,2.20
2022-09-04T01:46:23.900Z,2.10
2022-09-04T01:47:29.467Z,1.92
2022-09-04T01:48:36.022Z,2.33
2022-09-04T01:49:40.573Z,2.22
2022-09-04T01:50:44.353Z,2.20
2022-09-04T01:51:52.092Z,2.28
2022-09-04T01:52:59.359Z,2.40
2022-09-04T01:54:12.633Z,2.03
2022-09-04T01:55:20.029Z,2.25
2022-09-04T01:56:26.789Z,2.40
2022-09-04T01:57:41.514Z,2.00
2022-09-04T01:58:48.464Z,2.17
2022-09-04T02:00:02.163Z,2.13
2022-09-04T02:01:11.035Z,2.45
2022-09-04T02:02:17.154Z,2.40
2022-09-04T02:03:23.146Z,2.15
2022-09-04T02:04:29.193Z,2.42
2022-09-04T02:05:38.369Z,2.45
2022-09-04T02:06:43.512Z,2.20
2022-09-04T02:07:48.400Z,2.45
2022-09-04T02:08:58.971Z,2.28
2022-09-04T02:10:09.381Z,2.53
2022-09-04T02:11:15.443Z,2.03
2022-09-04T02:12:28.109Z,2.50
2022-09-04T02:13:36.643Z,2.63
2022-09-04T02:14:43.926Z,2.22
2022-09-04T02:16:00.613Z,2.45
2022-09-04T02:17:10.839Z,2.55
2022-09-04T02:18:19.837Z,2.08
2022-09-04T02:19:33.210Z,2.40
2022-09-04T02:20:34.959Z,2.45
2022-09-04T02:21:41.525Z,2.30
2022-09-04T02:22:48.512Z,2.35
2022-09-04T02:24:02.491Z,2.38
2022-09-04T02:25:06.673Z,2.60
2022-09-04T02:26:15.171Z,2.63
2022-09-04T02:27:22.014Z,2.10
2022-09-04T02:28:33.744Z,2.63
2022-09-04T02:29:40.882Z,2.20
2022-09-04T02:30:47.544Z,2.30
2022-09-04T02:32:01.107Z,2.20
2022-09-04T02:33:07.815Z,2.22
2022-09-04T02:34:14.948Z,2.60
2022-09-04T02:35:20.478Z,2.45
2022-09-04T02:36:28.495Z,2.50
2022-09-04T02:37:40.428Z,2.42
2022-09-04T02:38:48.913Z,2.33
2022-09-04T02:40:00.739Z,2.95
2022-09-04T02:41:09.887Z,2.55
2022-09-04T02:42:19.490Z,3.22
2022-09-04T02:43:40.422Z,2.70
2022-09-04T02:44:47.512Z,2.45
2022-09-04T02:45:57.037Z,2.60
2022-09-04T02:47:05.186Z,3.03
2022-09-04T02:48:15.578Z,2.60
2022-09-04T02:49:24.869Z,2.85
2022-09-04T02:50:44.377Z,2.40
2022-09-04T02:51:54.754Z,2.42
2022-09-04T02:53:05.381Z,2.60
2022-09-04T02:54:12.876Z,2.65
2022-09-04T02:55:23.764Z,2.22
2022-09-04T02:56:34.400Z,2.50
2022-09-04T02:57:50.275Z,2.80
2022-09-04T02:59:11.359Z,2.80
2022-09-04T03:00:21.189Z,2.53
2022-09-04T03:01:27.230Z,2.63
2022-09-04T03:02:33.194Z,2.67
2022-09-04T03:03:40.642Z,2.65
2022-09-04T03:04:49.958Z,2.55
2022-09-04T03:05:58.438Z,2.70
2022-09-04T03:07:06.441Z,2.85
2022-09-04T03:08:14.218Z,2.80
2022-09-04T03:09:21.685Z,3.03
2022-09-04T03:10:28.936Z,2.75
2022-09-04T03:11:34.721Z,2.38
2022-09-04T03:12:40.425Z,2.60
2022-09-04T03:13:49.882Z,2.78
2022-09-04T03:14:56.061Z,2.78
2022-09-04T03:16:03.463Z,2.63
2022-09-04T03:17:11.412Z,2.17
2022-09-04T03:18:20.427Z,2.70
2022-09-04T03:19:25.303Z,2.90
2022-09-04T03:20:29.758Z,2.80
2022-09-04T03:21:35.589Z,2.78
2022-09-04T03:22:45.331Z,3.05
2022-09-04T03:23:52.065Z,3.20
2022-09-04T03:25:04.438Z,3.05
2022-09-04T03:26:20.871Z,2.90
2022-09-04T03:27:24.157Z,2.60
2022-09-04T03:28:34.300Z,2.80
2022-09-04T03:29:43.352Z,2.58
2022-09-04T03:30:46.690Z,2.88
2022-09-04T03:31:54.002Z,2.70
2022-09-04T03:33:03.679Z,2.65
2022-09-04T03:34:18.100Z,3.10
2022-09-04T03:35:24.345Z,2.72
2022-09-04T03:36:33.466Z,3.00
2022-09-04T03:37:50.674Z,2.60
2022-09-04T03:38:59.135Z,3.33
2022-09-04T03:40:19.925Z,2.30
2022-09-04T03:41:30.724Z,3.28
2022-09-04T03:42:42.760Z,2.80
2022-09-04T03:43:56.148Z,3.08
2022-09-04T03:45:09.564Z,2.75
2022-09-04T03:46:20.276Z,2.97
2022-09-04T03:47:30.783Z,2.80
2022-09-04T03:48:53.113Z,2.65
2022-09-04T03:50:05.337Z,2.60
2022-09-04T03:51:16.133Z,3.10
2022-09-04T03:52:21.399Z,3.00
2022-09-04T03:53:30.321Z,2.78
2022-09-04T03:54:51.712Z,2.88
2022-09-04T03:56:16.804Z,2.47
2022-09-04T03:57:41.364Z,3.40
2022-09-04T03:58:50.186Z,3.08
2022-09-04T04:00:07.538Z,2.90
2022-09-04T04:01:15.421Z,2.90
2022-09-04T04:02:23.975Z,2.92
2022-09-04T04:03:42.465Z,3.20
2022-09-04T04:05:00.250Z,2.55
2022-09-04T04:06:12.861Z,2.85
2022-09-04T04:07:27.012Z,2.88
2022-09-04T04:08:38.634Z,2.72
2022-09-04T04:10:00.033Z,2.88
2022-09-04T04:11:16.661Z,2.78
2022-09-04T04:12:33.208Z,3.45
2022-09-04T04:13:43.157Z,3.50
2022-09-04T04:15:03.266Z,2.90
2022-09-04T04:16:23.712Z,3.35
2022-09-04T04:17:50.383Z,2.63
2022-09-04T04:19:03.784Z,3.17
2022-09-04T04:20:22.074Z,2.67
2022-09-04T04:21:34.878Z,2.88
2022-09-04T04:22:51.060Z,2.92
2022-09-04T04:24:32.895Z,2.75
2022-09-04T04:25:52.745Z,2.15
2022-09-04T04:27:07.069Z,2.53
2022-09-04T04:28:21.435Z,3.13
2022-09-04T04:29:56.033Z,3.63
2022-09-04T04:31:05.432Z,3.25
2022-09-04T04:32:33.294Z,3.08
2022-09-04T04:33:42.517Z,3.20
2022-09-04T04:34:56.011Z,3.55
2022-09-04T04:36:03.237Z,3.13
2022-09-04T04:37:10.191Z,3.80
2022-09-04T04:38:27.468Z,3.60
2022-09-04T04:39:35.887Z,3.35
2022-09-04T04:40:53.501Z,3.00
2022-09-04T04:42:06.388Z,3.70
2022-09-04T04:43:11.500Z,3.50
2022-09-04T04:44:16.911Z,3.80
2022-09-04T04:45:43.397Z,4.32
2022-09-04T04:46:54.482Z,3.55
2022-09-04T04:48:38.187Z,3.35
2022-09-04T04:49:56.879Z,3.00
2022-09-04T04:51:06.800Z,3.45
2022-09-04T04:52:28.422Z,3.20
2022-09-04T04:53:33.298Z,4.15
2022-09-04T04:54:45.098Z,3.65
2022-09-04T04:55:50.645Z,3.58
2022-09-04T04:56:58.780Z,3.33
2022-09-04T04:58:18.655Z,3.15
2022-09-04T04:59:24.556Z,3.63
2022-09-04T05:00:32.108Z,3.75
2022-09-04T05:01:43.279Z,3.60
2022-09-04T05:02:51.604Z,3.63
2022-09-04T05:04:03.293Z,3.60
2022-09-04T05:05:13.393Z,3.10
2022-09-04T05:06:20.670Z,3.70
2022-09-04T05:07:35.453Z,3.60
2022-09-04T05:08:44.195Z,4.28
2022-09-04T05:09:50.642Z,3.50
2022-09-04T05:10:57.046Z,3.13
2022-09-04T05:12:03.551Z,3.00
2022-09-04T05:13:13.335Z,3.22
2022-09-04T05:14:25.241Z,3.15
2022-09-04T05:15:43.837Z,3.03
2022-09-04T05:16:59.571Z,3.00
2022-09-04T05:18:06.276Z,2.90
2022-09-04T05:19:13.636Z,3.33
2022-09-04T05:20:25.804Z,3.58
2022-09-04T05:21:33.525Z,3.40
2022-09-04T05:22:40.026Z,3.17
2022-09-04T05:23:46.714Z,3.85
2022-09-04T05:24:57.654Z,3.33
2022-09-04T05:26:10.733Z,3.10
2022-09-04T05:27:25.783Z,2.90
2022-09-04T05:28:33.915Z,3.17
2022-09-04T05:29:47.426Z,3.35
2022-09-04T05:30:53.384Z,3.00
2022-09-04T05:31:58.162Z,3.33
2022-09-04T05:33:06.635Z,3.10
2022-09-04T05:34:12.679Z,3.00
2022-09-04T05:35:18.073Z,3.47
2022-09-04T05:36:28.016Z,3.15
2022-09-04T05:37:33.725Z,3.03
2022-09-04T05:38:44.863Z,3.30
2022-09-04T05:39:57.555Z,3.38
2022-09-04T05:41:08.408Z,3.75
2022-09-04T05:42:22.156Z,2.90
2022-09-04T05:43:31.789Z,3.47
2022-09-04T05:44:39.016Z,3.13
2022-09-04T05:45:52.589Z,2.88
2022-09-04T05:47:06.775Z,3.30
2022-09-04T05:48:16.545Z,3.03
2022-09-04T05:49:25.629Z,2.42
2022-09-04T05:50:40.617Z,3.10
2022-09-04T05:52:10.069Z,2.88
2022-09-04T05:53:46.990Z,2.65
2022-09-04T05:55:31.802Z,2.22
2022-09-04T05:56:50.508Z,2.80
2022-09-04T05:58:17.529Z,2.63
2022-09-04T05:59:44.607Z,2.92
2022-09-04T06:00:51.205Z,2.40
2022-09-04T06:02:17.114Z,2.83
2022-09-04T06:03:46.719Z,2.67
2022-09-04T06:04:55.968Z,2.45
2022-09-04T06:06:05.041Z,2.50
2022-09-04T06:07:12.452Z,2.55
2022-09-04T06:08:28.866Z,2.55
2022-09-04T06:09:40.465Z,3.00
2022-09-04T06:10:51.468Z,2.67
2022-09-04T06:12:05.337Z,2.47
2022-09-04T06:13:29.672Z,2.78
2022-09-04T06:14:57.379Z,2.42
2022-09-04T06:16:15.213Z,2.47
2022-09-04T06:17:28.856Z,3.15
2022-09-04T06:18:49.336Z,2.53
2022-09-04T06:20:18.824Z,2.42
2022-09-04T06:21:47.781Z,2.50
2022-09-04T06:23:05.952Z,2.40
2022-09-04T06:24:32.512Z,2.70
2022-09-04T06:25:43.154Z,2.65
2022-09-04T06:26:58.895Z,3.08
2022-09-04T06:28:11.983Z,2.75
2022-09-04T06:29:31.648Z,2.83
2022-09-04T06:30:38.385Z,3.05
2022-09-04T06:31:51.219Z,2.95
2022-09-04T06:33:26.304Z,2.80
2022-09-04T06:34:37.757Z,2.60
2022-09-04T06:36:05.527Z,2.50
2022-09-04T06:37:12.895Z,2.47
2022-09-04T06:38:31.505Z,2.95
2022-09-04T06:39:57.282Z,2.60
2022-09-04T06:41:11.270Z,2.50
2022-09-04T06:42:23.844Z,2.20
2022-09-04T06:43:32.581Z,2.92
2022-09-04T06:44:46.499Z,2.45
2022-09-04T06:45:56.744Z,2.67
2022-09-04T06:47:09.516Z,2.65
2022-09-04T06:48:18.747Z,2.28
2022-09-04T06:49:26.219Z,2.85
2022-09-04T06:50:32.269Z,2.65
2022-09-04T06:51:53.477Z,2.65
2022-09-04T06:53:06.161Z,2.50
2022-09-04T06:54:17.172Z,2.47
2022-09-04T06:55:25.771Z,2.67
2022-09-04T06:56:38.489Z,2.40
2022-09-04T06:57:58.686Z,2.50
2022-09-04T06:59:13.260Z,2.40
2022-09-04T07:00:17.182Z,2.97
2022-09-04T07:01:20.282Z,2.65
2022-09-04T07:02:35.406Z,2.70
2022-09-04T07:03:49.059Z,2.83
2022-09-04T07:05:00.113Z,2.88
2022-09-04T07:06:07.346Z,2.75
2022-09-04T07:07:17.140Z,2.53
2022-09-04T07:08:28.252Z,2.88
2022-09-04T07:09:34.698Z,3.45
2022-09-04T07:10:42.632Z,3.05
2022-09-04T07:11:57.897Z,2.90
2022-09-04T07:13:23.491Z,2.67
2022-09-04T07:14:38.458Z,2.97
2022-09-04T07:15:53.141Z,2.70
2022-09-04T07:17:03.889Z,2.53
2022-09-04T07:18:14.042Z,2.78
2022-09-04T07:19:40.580Z,2.90
2022-09-04T07:20:50.131Z,2.70
2022-09-04T07:22:05.504Z,2.80
2022-09-04T07:23:22.585Z,2.88
2022-09-04T07:24:43.031Z,2.90
2022-09-04T07:25:49.504Z,2.65
2022-09-04T07:26:54.004Z,2.10
2022-09-04T07:28:19.395Z,3.10
2022-09-04T07:29:31.641Z,2.70
2022-09-04T07:30:39.794Z,2.63
2022-09-04T07:31:44.710Z,3.05
2022-09-04T07:32:53.356Z,3.08
2022-09-04T07:34:01.267Z,2.30
2022-09-04T07:35:08.848Z,2.47
2022-09-04T07:36:14.613Z,2.50
2022-09-04T07:37:27.696Z,2.10
2022-09-04T07:38:33.508Z,2.80
2022-09-04T07:39:41.182Z,2.60
2022-09-04T07:40:46.809Z,2.72
2022-09-04T07:41:54.869Z,2.90
2022-09-04T07:43:03.582Z,2.28
2022-09-04T07:44:10.194Z,2.80
2022-09-04T07:45:22.359Z,2.58
2022-09-04T07:46:33.378Z,2.47
2022-09-04T07:47:39.578Z,2.30
2022-09-04T07:48:45.200Z,2.53
2022-09-04T07:49:56.213Z,2.97
2022-09-04T07:51:10.155Z,3.30
2022-09-04T07:52:22.700Z,2.45
2022-09-04T07:53:33.995Z,2.13
2022-09-04T07:54:51.381Z,1.90
2022-09-04T07:55:58.165Z,2.60
2022-09-04T07:57:21.900Z,2.47
2022-09-04T07:58:50.121Z,1.70
2022-09-04T08:00:01.841Z,2.42
2022-09-04T08:01:18.489Z,2.50
2022-09-04T08:02:35.453Z,2.10
2022-09-04T08:03:57.072Z,2.33
2022-09-04T08:05:20.797Z,2.35
2022-09-04T08:06:27.387Z,2.90
2022-09-04T08:07:49.855Z,2.65
2022-09-04T08:09:25.997Z,2.53
2022-09-04T08:10:32.014Z,2.50
2022-09-04T08:11:42.419Z,2.40
2022-09-04T08:12:56.177Z,2.03
2022-09-04T08:14:18.452Z,1.63
2022-09-04T08:15:23.239Z,2.40
2022-09-04T08:16:28.700Z,2.70
2022-09-04T08:18:01.493Z,2.50
2022-09-04T08:19:15.662Z,2.25
2022-09-04T08:20:29.055Z,2.40
2022-09-04T08:21:32.951Z,3.17
2022-09-04T08:22:41.389Z,2.42
2022-09-04T08:24:06.457Z,2.58
2022-09-04T08:25:17.092Z,2.20
2022-09-04T08:26:29.511Z,2.40
2022-09-04T08:27:49.877Z,2.70
2022-09-04T08:29:04.318Z,2.10
2022-09-04T08:30:07.330Z,2.40
2022-09-04T08:31:14.705Z,2.70
2022-09-04T08:32:37.887Z,2.58
2022-09-04T08:34:13.879Z,2.53
2022-09-04T08:35:22.793Z,2.28
2022-09-04T08:36:29.653Z,2.08
2022-09-04T08:37:40.412Z,2.38
2022-09-04T08:38:56.539Z,1.83
2022-09-04T08:40:20.712Z,1.83
2022-09-04T08:41:46.579Z,2.38
2022-09-04T08:43:12.132Z,2.47
2022-09-04T08:44:35.078Z,1.88
2022-09-04T08:46:04.829Z,1.98
2022-09-04T08:47:40.296Z,1.77
2022-09-04T08:49:20.726Z,2.50
2022-09-04T08:50:47.069Z,2.70
2022-09-04T08:52:18.788Z,2.80
2022-09-04T08:53:44.133Z,2.72
2022-09-04T08:55:23.045Z,2.50
2022-09-04T08:56:27.194Z,2.50
2022-09-04T08:57:54.263Z,2.38
2022-09-04T08:59:18.005Z,1.83
2022-09-04T09:00:21.589Z,2.70
2022-09-04T09:01:46.988Z,2.63
2022-09-04T09:03:23.572Z,2.10
2022-09-04T09:05:09.924Z,2.70
2022-09-04T09:06:57.536Z,2.15
2022-09-04T09:08:16.183Z,1.90
2022-09-04T09:09:51.368Z,2.08
2022-09-04T09:11:07.315Z,2.20
2022-09-04T09:12:41.220Z,2.15
2022-09-04T09:14:22.829Z,2.40
2022-09-04T09:16:03.343Z,2.40
2022-09-04T09:17:13.041Z,2.10
2022-09-04T09:18:37.223Z,1.83
2022-09-04T09:19:46.469Z,2.40
2022-09-04T09:20:54.704Z,2.00
2022-09-04T09:22:10.388Z,2.40
2022-09-04T09:23:20.417Z,1.90
2022-09-04T09:24:42.751Z,2.00
2022-09-04T09:25:51.439Z,2.30
2022-09-04T09:27:02.732Z,2.33
2022-09-04T09:28:38.115Z,2.38
2022-09-04T09:29:53.797Z,2.03
2022-09-04T09:31:29.394Z,2.25
2022-09-04T09:32:47.094Z,2.40
2022-09-04T09:34:14.394Z,3.05
2022-09-04T09:36:04.093Z,2.53
2022-09-04T09:37:48.169Z,2.33
2022-09-04T09:39:04.408Z,2.10
2022-09-04T09:40:23.909Z,2.38
2022-09-04T09:41:46.481Z,2.22
2022-09-04T09:43:26.733Z,1.95
2022-09-04T09:44:44.397Z,2.08
2022-09-04T09:46:22.034Z,1.65
2022-09-04T09:48:10.970Z,1.80
2022-09-04T09:49:51.422Z,1.98
2022-09-04T09:51:38.756Z,2.00
2022-09-04T09:53:22.683Z,1.77
2022-09-04T09:54:58.594Z,1.95
2022-09-04T09:56:19.681Z,1.90
2022-09-04T09:57:45.359Z,1.85
2022-09-04T09:59:28.012Z,1.80
2022-09-04T10:00:36.617Z,1.80
2022-09-04T10:02:04.772Z,1.92
2022-09-04T10:03:32.238Z,1.60
2022-09-04T10:04:53.021Z,1.70
2022-09-04T10:06:13.992Z,2.40
2022-09-04T10:07:41.204Z,1.73
2022-09-04T10:09:17.429Z,2.00
2022-09-04T10:10:41.601Z,1.85
2022-09-04T10:12:13.158Z,1.65
2022-09-04T10:13:29.775Z,1.90
2022-09-04T10:15:06.441Z,1.60
2022-09-04T10:16:36.001Z,2.80
2022-09-04T10:18:16.105Z,1.77
2022-09-04T10:19:39.384Z,2.10
2022-09-04T10:21:10.558Z,2.28
2022-09-04T10:22:49.925Z,1.98
2022-09-04T10:24:27.859Z,1.73
2022-09-04T10:26:07.928Z,1.88
2022-09-04T10:27:23.131Z,1.70
2022-09-04T10:29:19.657Z,1.60
2022-09-04T10:30:21.888Z,2.17
2022-09-04T10:31:45.649Z,1.63
2022-09-04T10:33:19.094Z,1.90
2022-09-04T10:34:32.872Z,2.35
2022-09-04T10:35:43.272Z,1.83
2022-09-04T10:36:50.997Z,2.15
2022-09-04T10:38:10.750Z,1.90
2022-09-04T10:39:40.103Z,1.70
2022-09-04T10:40:58.168Z,1.80
2022-09-04T10:42:09.459Z,1.88
2022-09-04T10:43:24.911Z,1.88
2022-09-04T10:44:37.788Z,1.83
2022-09-04T10:45:46.142Z,2.00
2022-09-04T10:46:59.813Z,2.55
2022-09-04T10:48:38.938Z,2.00
2022-09-04T10:50:04.662Z,2.15
2022-09-04T10:51:27.158Z,2.17
2022-09-04T10:52:51.645Z,2.42
2022-09-04T10:54:16.749Z,2.10
2022-09-04T10:55:33.035Z,2.35
2022-09-04T10:56:41.909Z,2.10
2022-09-04T10:58:01.582Z,2.13
2022-09-04T10:59:20.665Z,2.10
2022-09-04T11:00:24.121Z,2.25
2022-09-04T11:01:53.310Z,1.95
2022-09-04T11:03:28.654Z,2.10
2022-09-04T11:04:53.593Z,1.98
2022-09-04T11:06:32.947Z,1.90
2022-09-04T11:08:01.971Z,1.80
2022-09-04T11:09:28.302Z,2.60
2022-09-04T11:10:54.154Z,1.75
2022-09-04T11:12:07.270Z,1.73
2022-09-04T11:13:51.845Z,1.88
2022-09-04T11:15:12.553Z,1.70
2022-09-04T11:16:33.113Z,2.10
2022-09-04T11:18:00.817Z,2.30
2022-09-04T11:19:48.060Z,2.17
2022-09-04T11:21:15.948Z,1.88
2022-09-04T11:22:46.074Z,1.95
2022-09-04T11:24:15.458Z,1.75
2022-09-04T11:26:05.986Z,1.52
2022-09-04T11:27:42.638Z,2.08
2022-09-04T11:29:04.009Z,2.00
2022-09-04T11:30:12.195Z,2.20
2022-09-04T11:31:41.239Z,2.33
2022-09-04T11:32:58.121Z,1.83
2022-09-04T11:34:38.940Z,2.17
2022-09-04T11:36:18.895Z,2.00
2022-09-04T11:37:46.416Z,1.60
2022-09-04T11:39:15.119Z,2.20
2022-09-04T11:40:43.788Z,2.13
2022-09-04T11:42:08.270Z,1.67
2022-09-04T11:43:25.727Z,1.85
2022-09-04T11:45:00.512Z,1.80
2022-09-04T11:46:23.482Z,1.98
2022-09-04T11:47:41.530Z,1.70
2022-09-04T11:49:09.738Z,2.17
2022-09-04T11:50:24.820Z,1.60
2022-09-04T11:51:54.364Z,1.83
2022-09-04T11:53:12.756Z,1.92
2022-09-04T11:54:29.718Z,1.98
2022-09-04T11:55:41.164Z,2.17
2022-09-04T11:57:04.921Z,1.90
2022-09-04T11:58:43.009Z,2.20
2022-09-04T12:00:07.534Z,1.70
2022-09-04T12:01:22.284Z,1.98
2022-09-04T12:02:47.316Z,1.80
2022-09-04T12:04:28.943Z,1.98
2022-09-04T12:05:46.968Z,3.00
2022-09-04T12:07:00.048Z,2.13
2022-09-04T12:08:16.299Z,1.63
2022-09-04T12:09:40.861Z,1.90
2022-09-04T12:10:56.524Z,1.85
2022-09-04T12:12:22.502Z,2.08
2022-09-04T12:14:01.952Z,2.00
2022-09-04T12:15:16.380Z,2.17
2022-09-04T12:16:44.521Z,2.10
2022-09-04T12:18:08.373Z,2.00
2022-09-04T12:19:50.559Z,2.20
2022-09-04T12:21:25.671Z,1.90
2022-09-04T12:23:09.040Z,1.70
2022-09-04T12:24:31.622Z,2.10
2022-09-04T12:25:50.986Z,2.08
2022-09-04T12:27:08.140Z,1.77
2022-09-04T12:28:47.822Z,1.95
2022-09-04T12:30:06.128Z,1.73
2022-09-04T12:31:22.198Z,1.90
2022-09-04T12:32:46.721Z,1.70
2022-09-04T12:34:10.925Z,1.80
2022-09-04T12:35:34.647Z,1.85
2022-09-04T12:36:59.271Z,1.95
2022-09-04T12:38:24.836Z,2.10
2022-09-04T12:39:53.867Z,1.95
2022-09-04T12:41:02.201Z,1.80
2022-09-04T12:42:11.219Z,1.98
2022-09-04T12:43:21.885Z,2.10
2022-09-04T12:44:35.202Z,1.90
2022-09-04T12:45:42.227Z,1.95
2022-09-04T12:47:00.533Z,1.65
2022-09-04T12:48:09.598Z,1.73
2022-09-04T12:49:35.554Z,2.13
2022-09-04T12:50:45.272Z,1.83
2022-09-04T12:51:51.818Z,1.80
2022-09-04T12:53:12.053Z,2.00
2022-09-04T12:54:24.871Z,1.88
2022-09-04T12:55:36.271Z,1.98
2022-09-04T12:56:49.482Z,2.40
2022-09-04T12:58:01.067Z,1.83
2022-09-04T12:59:16.050Z,1.95
2022-09-04T13:00:19.707Z,1.60
2022-09-04T13:01:32.116Z,2.63
2022-09-04T13:02:44.940Z,1.90
2022-09-04T13:03:52.327Z,1.98
2022-09-04T13:05:03.769Z,1.83
2022-09-04T13:06:15.263Z,2.22
2022-09-04T13:07:27.642Z,2.15
2022-09-04T13:08:37.948Z,1.80
2022-09-04T13:09:53.627Z,2.03
2022-09-04T13:11:01.569Z,1.95
2022-09-04T13:12:15.629Z,2.08
2022-09-04T13:13:25.122Z,2.10
2022-09-04T13:14:38.962Z,2.03
2022-09-04T13:15:47.143Z,1.83
2022-09-04T13:16:57.148Z,2.00
2022-09-04T13:18:09.341Z,2.17
2022-09-04T13:19:18.896Z,2.28
2022-09-04T13:20:29.098Z,2.05
2022-09-04T13:21:41.250Z,2.20
2022-09-04T13:22:54.083Z,1.83
2022-09-04T13:24:28.634Z,2.00
2022-09-04T13:25:42.170Z,2.25
2022-09-04T13:27:04.890Z,1.98
2022-09-04T13:28:17.235Z,1.58
2022-09-04T13:29:26.231Z,1.60
2022-09-04T13:30:29.439Z,1.77
2022-09-04T13:32:01.940Z,2.35
2022-09-04T13:33:39.587Z,1.83
2022-09-04T13:34:55.213Z,2.17
2022-09-04T13:36:05.695Z,1.85
2022-09-04T13:37:14.624Z,1.95
2022-09-04T13:38:45.892Z,2.05
2022-09-04T13:40:08.050Z,2.38
2022-09-04T13:41:30.581Z,2.30
2022-09-04T13:42:54.145Z,2.30
2022-09-04T13:44:06.534Z,2.15
2022-09-04T13:45:11.641Z,2.08
2022-09-04T13:46:16.759Z,1.63
2022-09-04T13:47:22.797Z,2.00
2022-09-04T13:48:40.763Z,2.20
2022-09-04T13:49:47.998Z,1.98
2022-09-04T13:50:55.668Z,2.22
2022-09-04T13:52:02.249Z,2.50
2022-09-04T13:53:12.261Z,2.17
2022-09-04T13:54:17.337Z,2.60
2022-09-04T13:55:23.470Z,2.20
2022-09-04T13:56:30.568Z,2.15
2022-09-04T13:57:37.347Z,2.28
2022-09-04T13:58:47.343Z,1.83
2022-09-04T13:59:49.995Z,2.47
2022-09-04T14:00:54.508Z,2.20
2022-09-04T14:01:59.932Z,2.20
2022-09-04T14:03:04.535Z,2.30
2022-09-04T14:04:11.202Z,2.30
2022-09-04T14:05:16.677Z,2.13
2022-09-04T14:06:20.634Z,2.28
2022-09-04T14:07:29.604Z,2.05
2022-09-04T14:08:34.505Z,2.20
2022-09-04T14:09:39.602Z,2.55
2022-09-04T14:10:59.947Z,2.20
2022-09-04T14:12:32.112Z,2.00
2022-09-04T14:13:47.325Z,2.10
2022-09-04T14:15:19.332Z,2.53
2022-09-04T14:16:23.846Z,2.20
2022-09-04T14:17:30.059Z,2.90
2022-09-04T14:18:50.906Z,1.95
2022-09-04T14:19:55.413Z,2.47
2022-09-04T14:21:03.444Z,2.60
2022-09-04T14:22:14.939Z,2.45
2022-09-04T14:23:25.191Z,2.33
2022-09-04T14:24:32.883Z,2.25
2022-09-04T14:25:40.531Z,2.75
2022-09-04T14:26:49.642Z,3.00
2022-09-04T14:27:58.448Z,3.17
2022-09-04T14:29:04.210Z,2.75
2022-09-04T14:30:09.264Z,2.30
2022-09-04T14:31:15.981Z,2.30
2022-09-04T14:32:25.258Z,2.28
2022-09-04T14:33:35.655Z,2.90
2022-09-04T14:34:45.452Z,3.00
2022-09-04T14:35:59.844Z,2.30
2022-09-04T14:37:10.344Z,2.60
2022-09-04T14:38:38.792Z,2.40
2022-09-04T14:39:48.426Z,2.33
2022-09-04T14:40:58.625Z,2.72
2022-09-04T14:42:23.153Z,2.42
2022-09-04T14:43:33.064Z,2.60
2022-09-04T14:44:44.689Z,2.20
2022-09-04T14:46:04.674Z,2.42
2022-09-04T14:47:12.336Z,2.42
2022-09-04T14:48:17.471Z,2.40
2022-09-04T14:49:23.131Z,2.60
2022-09-04T14:50:29.331Z,2.40
2022-09-04T14:51:35.153Z,2.20
2022-09-04T14:52:40.160Z,2.90
2022-09-04T14:53:47.690Z,2.53
2022-09-04T14:54:54.548Z,2.28
2022-09-04T14:56:19.532Z,2.42
2022-09-04T14:57:26.935Z,2.45
2022-09-04T14:58:32.840Z,2.85
2022-09-04T14:59:37.905Z,2.17
2022-09-04T15:00:58.345Z,2.35
2022-09-04T15:02:11.725Z,2.60
2022-09-04T15:03:18.289Z,2.58
2022-09-04T15:04:23.765Z,2.70
2022-09-04T15:05:30.250Z,2.55
2022-09-04T15:06:44.659Z,2.80
2022-09-04T15:07:59.781Z,2.60
2022-09-04T15:09:19.648Z,2.70
2022-09-04T15:10:26.564Z,3.08
2022-09-04T15:11:32.038Z,2.83
2022-09-04T15:12:36.850Z,2.70
2022-09-04T15:13:52.471Z,2.25
2022-09-04T15:14:59.114Z,2.35
2022-09-04T15:16:12.116Z,2.22
2022-09-04T15:17:26.107Z,2.58
2022-09-04T15:18:32.758Z,2.35
2022-09-04T15:19:45.120Z,2.58
2022-09-04T15:20:53.745Z,2.67
2022-09-04T15:21:59.144Z,2.85
2022-09-04T15:23:05.854Z,2.53
2022-09-04T15:24:17.147Z,2.60
2022-09-04T15:25:57.149Z,2.30
2022-09-04T15:27:03.445Z,2.17
2022-09-04T15:28:10.922Z,2.53
2022-09-04T15:29:19.648Z,2.90
2022-09-04T15:30:24.530Z,2.72
2022-09-04T15:31:29.497Z,2.67
2022-09-04T15:32:36.593Z,2.28
2022-09-04T15:33:39.398Z,3.00
2022-09-04T15:34:42.278Z,2.30
2022-09-04T15:35:44.710Z,2.13
2022-09-04T15:36:48.105Z,2.42
2022-09-04T15:37:53.153Z,2.40
2022-09-04T15:38:57.198Z,2.65
2022-09-04T15:40:05.952Z,2.30
2022-09-04T15:41:19.740Z,2.60
2022-09-04T15:42:42.562Z,2.60
2022-09-04T15:43:48.254Z,2.47
2022-09-04T15:44:52.334Z,2.40
2022-09-04T15:45:58.446Z,2.60
2022-09-04T15:47:04.912Z,2.15
2022-09-04T15:48:25.294Z,2.63
2022-09-04T15:49:40.033Z,2.50
2022-09-04T15:50:57.615Z,2.33
2022-09-04T15:52:10.674Z,2.60
2022-09-04T15:53:15.349Z,2.90
2022-09-04T15:54:28.807Z,2.63
2022-09-04T15:55:32.987Z,2.60
2022-09-04T15:56:37.902Z,3.20
2022-09-04T15:57:52.051Z,2.67
2022-09-04T15:59:01.561Z,2.90
2022-09-04T16:00:10.455Z,2.47
2022-09-04T16:01:17.005Z,2.33
2022-09-04T16:02:24.704Z,2.72
2022-09-04T16:03:30.644Z,2.60
2022-09-04T16:04:36.314Z,2.47
2022-09-04T16:05:41.370Z,3.13
2022-09-04T16:06:47.895Z,2.40
2022-09-04T16:07:59.178Z,2.97
2022-09-04T16:09:09.168Z,2.85
2022-09-04T16:10:16.233Z,2.78
2022-09-04T16:11:24.160Z,2.30
2022-09-04T16:12:30.636Z,2.50
2022-09-04T16:13:45.688Z,2.72
2022-09-04T16:14:50.510Z,2.53
2022-09-04T16:16:03.499Z,2.55
2022-09-04T16:17:11.878Z,2.85
2022-09-04T16:18:16.075Z,3.38
2022-09-04T16:19:26.470Z,2.42
2022-09-04T16:20:35.353Z,2.95
2022-09-04T16:21:44.376Z,3.10
2022-09-04T16:22:49.820Z,2.40
2022-09-04T16:23:52.683Z,2.78
2022-09-04T16:25:06.127Z,2.55
2022-09-04T16:26:11.989Z,2.67
2022-09-04T16:27:16.809Z,2.90
2022-09-04T16:28:26.628Z,2.17
2022-09-04T16:29:35.783Z,2.75
2022-09-04T16:30:41.540Z,2.92
2022-09-04T16:31:51.414Z,2.40
2022-09-04T16:32:54.084Z,2.50
2022-09-04T16:33:58.396Z,2.50